San Antonio, Texas
Traffic Map
Current Weather Conditions
San Antonio, Texas
Broken Clouds
Broken Clouds
55°
Feels Like: 55°
Wind Chill: 55° Ceiling: 25000
Heat Index: 55° Visibility: 10mi
Dew Point: 35° Wind: 7mph
Humidity: 47% Direction: 230° (SW)
Pressure: 29.99in Gusts: 0mph
Raw Report DataKSAT 140251Z 23006KT 10SM BKN250 13/02 A2999 RMK AO2 SLP148 T01280017 56004
Traffic Incident Summary
Active as of:
Severity:
Category:
InformationThere was an issue retrieving the traffic information for this location. Please try a different location or try again shortly.
Advertisements